sensor_id;sensor_type;location;lat;lon;timestamp;P1;durP1;ratioP1;P2;durP2;ratioP2
25868;SDS011;13688;53.154;18.136;2024-03-23T00:56:49;17.10;;;4.05;;
25868;SDS011;13688;53.154;18.136;2024-03-23T01:02:11;20.72;;;4.28;;
25868;SDS011;13688;53.154;18.136;2024-03-23T01:07:33;17.40;;;3.65;;
25868;SDS011;13688;53.154;18.136;2024-03-23T01:12:56;16.05;;;3.40;;
25868;SDS011;13688;53.154;18.136;2024-03-23T01:18:18;14.95;;;3.77;;
25868;SDS011;13688;53.154;18.136;2024-03-23T01:23:41;14.68;;;4.00;;
25868;SDS011;13688;53.154;18.136;2024-03-23T01:29:03;12.78;;;2.98;;
25868;SDS011;13688;53.154;18.136;2024-03-23T01:34:26;14.25;;;3.33;;
25868;SDS011;13688;53.154;18.136;2024-03-23T01:39:49;12.82;;;2.95;;
25868;SDS011;13688;53.154;18.136;2024-03-23T01:45:12;16.30;;;4.28;;
25868;SDS011;13688;53.154;18.136;2024-03-23T01:50:34;11.80;;;3.35;;
25868;SDS011;13688;53.154;18.136;2024-03-23T01:55:57;13.53;;;3.75;;
25868;SDS011;13688;53.154;18.136;2024-03-23T02:01:19;15.88;;;4.37;;
25868;SDS011;13688;53.154;18.136;2024-03-23T02:06:42;18.20;;;5.00;;
25868;SDS011;13688;53.154;18.136;2024-03-23T02:12:04;15.50;;;4.05;;
25868;SDS011;13688;53.154;18.136;2024-03-23T02:17:27;15.18;;;4.33;;
25868;SDS011;13688;53.154;18.136;2024-03-23T02:22:51;14.50;;;4.22;;
25868;SDS011;13688;53.154;18.136;2024-03-23T02:28:14;18.37;;;4.22;;
25868;SDS011;13688;53.154;18.136;2024-03-23T02:33:37;14.03;;;3.85;;
25868;SDS011;13688;53.154;18.136;2024-03-23T02:38:59;16.20;;;4.00;;
25868;SDS011;13688;53.154;18.136;2024-03-23T02:44:22;12.00;;;4.03;;
25868;SDS011;13688;53.154;18.136;2024-03-23T02:49:44;12.47;;;3.83;;
25868;SDS011;13688;53.154;18.136;2024-03-23T02:55:07;15.80;;;4.15;;
25868;SDS011;13688;53.154;18.136;2024-03-23T03:00:30;15.85;;;3.90;;
25868;SDS011;13688;53.154;18.136;2024-03-23T03:05:56;14.95;;;3.65;;
25868;SDS011;13688;53.154;18.136;2024-03-23T03:11:18;16.60;;;3.67;;
25868;SDS011;13688;53.154;18.136;2024-03-23T03:16:41;17.60;;;4.05;;
25868;SDS011;13688;53.154;18.136;2024-03-23T03:22:03;15.90;;;3.98;;
25868;SDS011;13688;53.154;18.136;2024-03-23T03:27:26;14.70;;;3.67;;
25868;SDS011;13688;53.154;18.136;2024-03-23T03:32:49;9.40;;;3.30;;
25868;SDS011;13688;53.154;18.136;2024-03-23T03:38:11;14.28;;;3.52;;
25868;SDS011;13688;53.154;18.136;2024-03-23T03:43:34;15.43;;;4.05;;
25868;SDS011;13688;53.154;18.136;2024-03-23T03:48:57;11.95;;;3.75;;
25868;SDS011;13688;53.154;18.136;2024-03-23T03:54:21;11.05;;;4.05;;
25868;SDS011;13688;53.154;18.136;2024-03-23T03:59:44;14.70;;;3.90;;
25868;SDS011;13688;53.154;18.136;2024-03-23T04:05:07;15.78;;;4.58;;
25868;SDS011;13688;53.154;18.136;2024-03-23T04:10:30;14.35;;;4.10;;
25868;SDS011;13688;53.154;18.136;2024-03-23T04:15:56;12.03;;;3.60;;
25868;SDS011;13688;53.154;18.136;2024-03-23T04:21:18;17.23;;;3.80;;
25868;SDS011;13688;53.154;18.136;2024-03-23T04:26:41;13.90;;;4.28;;
25868;SDS011;13688;53.154;18.136;2024-03-23T04:32:04;18.67;;;4.65;;
25868;SDS011;13688;53.154;18.136;2024-03-23T04:37:27;19.67;;;4.78;;
25868;SDS011;13688;53.154;18.136;2024-03-23T04:42:49;16.17;;;5.15;;
25868;SDS011;13688;53.154;18.136;2024-03-23T04:48:11;18.70;;;5.10;;
25868;SDS011;13688;53.154;18.136;2024-03-23T04:53:38;18.40;;;5.78;;
25868;SDS011;13688;53.154;18.136;2024-03-23T04:59:00;15.25;;;4.87;;
25868;SDS011;13688;53.154;18.136;2024-03-23T05:04:23;15.68;;;4.90;;
25868;SDS011;13688;53.154;18.136;2024-03-23T05:09:46;18.75;;;5.87;;
25868;SDS011;13688;53.154;18.136;2024-03-23T05:15:08;19.25;;;4.67;;
25868;SDS011;13688;53.154;18.136;2024-03-23T05:20:31;15.45;;;4.95;;
25868;SDS011;13688;53.154;18.136;2024-03-23T05:25:53;17.42;;;4.87;;
25868;SDS011;13688;53.154;18.136;2024-03-23T05:31:23;15.60;;;4.20;;
25868;SDS011;13688;53.154;18.136;2024-03-23T05:36:46;15.25;;;4.55;;
25868;SDS011;13688;53.154;18.136;2024-03-23T05:42:10;14.83;;;4.12;;
25868;SDS011;13688;53.154;18.136;2024-03-23T05:47:35;16.00;;;4.00;;
25868;SDS011;13688;53.154;18.136;2024-03-23T05:52:59;14.05;;;4.20;;
25868;SDS011;13688;53.154;18.136;2024-03-23T05:58:22;15.90;;;4.35;;
25868;SDS011;13688;53.154;18.136;2024-03-23T06:03:44;14.63;;;3.80;;
25868;SDS011;13688;53.154;18.136;2024-03-23T06:09:07;18.70;;;4.28;;
25868;SDS011;13688;53.154;18.136;2024-03-23T06:14:29;16.75;;;4.47;;
25868;SDS011;13688;53.154;18.136;2024-03-23T06:19:53;22.02;;;4.65;;
25868;SDS011;13688;53.154;18.136;2024-03-23T06:25:16;19.80;;;4.05;;
25868;SDS011;13688;53.154;18.136;2024-03-23T06:30:38;17.07;;;4.30;;
25868;SDS011;13688;53.154;18.136;2024-03-23T06:36:01;19.50;;;4.03;;
25868;SDS011;13688;53.154;18.136;2024-03-23T06:41:25;20.15;;;4.00;;
25868;SDS011;13688;53.154;18.136;2024-03-23T06:46:49;16.48;;;4.10;;
25868;SDS011;13688;53.154;18.136;2024-03-23T06:52:12;16.93;;;4.15;;
25868;SDS011;13688;53.154;18.136;2024-03-23T06:57:34;16.87;;;3.62;;
25868;SDS011;13688;53.154;18.136;2024-03-23T07:02:57;16.25;;;3.70;;
25868;SDS011;13688;53.154;18.136;2024-03-23T07:08:20;15.03;;;3.90;;
25868;SDS011;13688;53.154;18.136;2024-03-23T07:13:43;13.85;;;3.47;;
25868;SDS011;13688;53.154;18.136;2024-03-23T07:19:17;12.30;;;4.30;;
25868;SDS011;13688;53.154;18.136;2024-03-23T07:24:40;12.10;;;3.77;;
25868;SDS011;13688;53.154;18.136;2024-03-23T07:30:03;19.37;;;4.30;;
25868;SDS011;13688;53.154;18.136;2024-03-23T07:35:26;19.30;;;4.30;;
25868;SDS011;13688;53.154;18.136;2024-03-23T07:40:49;20.30;;;4.45;;
25868;SDS011;13688;53.154;18.136;2024-03-23T07:46:22;17.27;;;4.97;;
25868;SDS011;13688;53.154;18.136;2024-03-23T07:51:44;16.70;;;4.12;;
25868;SDS011;13688;53.154;18.136;2024-03-23T07:57:07;14.00;;;3.67;;
25868;SDS011;13688;53.154;18.136;2024-03-23T08:02:30;11.18;;;3.15;;
25868;SDS011;13688;53.154;18.136;2024-03-23T08:07:52;17.63;;;3.37;;
25868;SDS011;13688;53.154;18.136;2024-03-23T08:13:15;8.60;;;2.55;;
25868;SDS011;13688;53.154;18.136;2024-03-23T08:18:38;19.67;;;4.30;;
25868;SDS011;13688;53.154;18.136;2024-03-23T08:24:01;15.75;;;3.30;;
25868;SDS011;13688;53.154;18.136;2024-03-23T08:29:24;16.95;;;3.55;;
25868;SDS011;13688;53.154;18.136;2024-03-23T08:34:47;13.68;;;3.30;;
25868;SDS011;13688;53.154;18.136;2024-03-23T08:40:10;15.95;;;3.33;;
25868;SDS011;13688;53.154;18.136;2024-03-23T08:45:33;17.85;;;3.70;;
25868;SDS011;13688;53.154;18.136;2024-03-23T08:51:02;16.15;;;3.58;;
25868;SDS011;13688;53.154;18.136;2024-03-23T08:56:26;11.22;;;3.05;;
25868;SDS011;13688;53.154;18.136;2024-03-23T09:01:48;11.85;;;2.83;;
25868;SDS011;13688;53.154;18.136;2024-03-23T09:07:12;13.20;;;2.85;;
25868;SDS011;13688;53.154;18.136;2024-03-23T09:12:35;10.90;;;2.83;;
25868;SDS011;13688;53.154;18.136;2024-03-23T09:18:02;13.98;;;5.08;;
25868;SDS011;13688;53.154;18.136;2024-03-23T09:23:22;11.10;;;3.20;;
25868;SDS011;13688;53.154;18.136;2024-03-23T09:28:44;8.28;;;2.62;;
25868;SDS011;13688;53.154;18.136;2024-03-23T09:34:07;10.48;;;2.33;;
25868;SDS011;13688;53.154;18.136;2024-03-23T09:39:30;7.33;;;1.62;;
25868;SDS011;13688;53.154;18.136;2024-03-23T09:44:53;7.55;;;2.45;;
25868;SDS011;13688;53.154;18.136;2024-03-23T09:50:17;7.65;;;3.30;;
25868;SDS011;13688;53.154;18.136;2024-03-23T09:55:42;14.73;;;9.45;;
25868;SDS011;13688;53.154;18.136;2024-03-23T10:06:26;10.15;;;3.70;;
25868;SDS011;13688;53.154;18.136;2024-03-23T10:11:49;6.28;;;2.27;;
25868;SDS011;13688;53.154;18.136;2024-03-23T10:17:23;5.33;;;2.27;;
25868;SDS011;13688;53.154;18.136;2024-03-23T10:22:46;6.25;;;2.47;;
25868;SDS011;13688;53.154;18.136;2024-03-23T10:28:09;6.25;;;1.62;;
25868;SDS011;13688;53.154;18.136;2024-03-23T10:33:32;6.03;;;2.00;;
25868;SDS011;13688;53.154;18.136;2024-03-23T10:38:58;6.47;;;2.00;;
25868;SDS011;13688;53.154;18.136;2024-03-23T10:44:25;7.35;;;2.20;;
25868;SDS011;13688;53.154;18.136;2024-03-23T10:49:48;8.30;;;2.70;;
25868;SDS011;13688;53.154;18.136;2024-03-23T10:55:11;5.67;;;2.40;;
25868;SDS011;13688;53.154;18.136;2024-03-23T11:00:36;20.90;;;10.28;;
25868;SDS011;13688;53.154;18.136;2024-03-23T11:05:59;9.18;;;2.80;;
25868;SDS011;13688;53.154;18.136;2024-03-23T11:11:24;6.40;;;2.37;;
25868;SDS011;13688;53.154;18.136;2024-03-23T11:16:46;9.05;;;2.50;;
25868;SDS011;13688;53.154;18.136;2024-03-23T11:22:37;7.22;;;2.70;;
25868;SDS011;13688;53.154;18.136;2024-03-23T11:27:57;8.35;;;3.10;;
25868;SDS011;13688;53.154;18.136;2024-03-23T11:33:27;13.65;;;5.33;;
25868;SDS011;13688;53.154;18.136;2024-03-23T11:38:49;16.67;;;4.47;;
25868;SDS011;13688;53.154;18.136;2024-03-23T11:44:18;11.05;;;4.62;;
25868;SDS011;13688;53.154;18.136;2024-03-23T11:49:38;10.45;;;3.12;;
25868;SDS011;13688;53.154;18.136;2024-03-23T11:55:04;10.23;;;3.50;;
25868;SDS011;13688;53.154;18.136;2024-03-23T12:00:27;12.63;;;3.75;;
25868;SDS011;13688;53.154;18.136;2024-03-23T12:05:51;10.72;;;2.80;;
25868;SDS011;13688;53.154;18.136;2024-03-23T12:11:15;7.67;;;2.22;;
25868;SDS011;13688;53.154;18.136;2024-03-23T12:16:38;10.00;;;2.52;;
25868;SDS011;13688;53.154;18.136;2024-03-23T12:22:00;7.33;;;2.30;;
25868;SDS011;13688;53.154;18.136;2024-03-23T12:27:23;8.83;;;2.27;;
25868;SDS011;13688;53.154;18.136;2024-03-23T12:32:46;6.67;;;2.02;;
25868;SDS011;13688;53.154;18.136;2024-03-23T12:38:09;20.27;;;12.47;;
25868;SDS011;13688;53.154;18.136;2024-03-23T12:43:32;9.15;;;3.83;;
25868;SDS011;13688;53.154;18.136;2024-03-23T12:48:55;10.00;;;4.62;;
25868;SDS011;13688;53.154;18.136;2024-03-23T12:54:17;8.33;;;3.00;;
25868;SDS011;13688;53.154;18.136;2024-03-23T12:59:40;7.03;;;3.05;;
25868;SDS011;13688;53.154;18.136;2024-03-23T13:05:04;10.67;;;5.00;;
25868;SDS011;13688;53.154;18.136;2024-03-23T13:10:26;12.37;;;3.77;;
25868;SDS011;13688;53.154;18.136;2024-03-23T13:15:50;9.75;;;2.77;;
25868;SDS011;13688;53.154;18.136;2024-03-23T13:21:13;5.60;;;2.30;;
25868;SDS011;13688;53.154;18.136;2024-03-23T13:26:35;5.63;;;2.00;;
25868;SDS011;13688;53.154;18.136;2024-03-23T13:31:59;8.73;;;3.15;;
25868;SDS011;13688;53.154;18.136;2024-03-23T13:37:22;6.67;;;3.00;;
25868;SDS011;13688;53.154;18.136;2024-03-23T13:42:44;5.95;;;2.75;;
25868;SDS011;13688;53.154;18.136;2024-03-23T13:48:07;6.83;;;2.87;;
25868;SDS011;13688;53.154;18.136;2024-03-23T13:53:30;2.87;;;1.50;;
25868;SDS011;13688;53.154;18.136;2024-03-23T13:58:53;4.90;;;2.02;;
25868;SDS011;13688;53.154;18.136;2024-03-23T14:04:16;3.90;;;1.65;;
25868;SDS011;13688;53.154;18.136;2024-03-23T14:09:38;5.55;;;1.80;;
25868;SDS011;13688;53.154;18.136;2024-03-23T14:15:03;5.70;;;1.42;;
25868;SDS011;13688;53.154;18.136;2024-03-23T14:20:25;2.67;;;1.20;;
25868;SDS011;13688;53.154;18.136;2024-03-23T14:25:48;3.45;;;1.30;;
25868;SDS011;13688;53.154;18.136;2024-03-23T14:31:12;4.12;;;1.72;;
25868;SDS011;13688;53.154;18.136;2024-03-23T14:36:35;4.37;;;1.40;;
25868;SDS011;13688;53.154;18.136;2024-03-23T14:41:58;5.10;;;1.67;;
25868;SDS011;13688;53.154;18.136;2024-03-23T14:47:21;3.92;;;1.60;;
25868;SDS011;13688;53.154;18.136;2024-03-23T14:52:46;7.95;;;2.20;;
25868;SDS011;13688;53.154;18.136;2024-03-23T14:58:09;3.87;;;1.42;;
25868;SDS011;13688;53.154;18.136;2024-03-23T15:03:31;6.30;;;1.52;;
25868;SDS011;13688;53.154;18.136;2024-03-23T15:08:56;3.12;;;1.35;;
25868;SDS011;13688;53.154;18.136;2024-03-23T15:14:19;2.33;;;1.15;;
25868;SDS011;13688;53.154;18.136;2024-03-23T15:19:42;3.58;;;1.20;;
25868;SDS011;13688;53.154;18.136;2024-03-23T15:25:04;1.42;;;0.90;;
25868;SDS011;13688;53.154;18.136;2024-03-23T15:30:27;1.60;;;0.75;;
25868;SDS011;13688;53.154;18.136;2024-03-23T15:35:50;1.85;;;0.70;;
25868;SDS011;13688;53.154;18.136;2024-03-23T15:41:16;3.27;;;1.05;;
25868;SDS011;13688;53.154;18.136;2024-03-23T15:46:39;2.25;;;0.95;;
25868;SDS011;13688;53.154;18.136;2024-03-23T15:52:02;3.42;;;1.12;;
25868;SDS011;13688;53.154;18.136;2024-03-23T15:57:25;5.08;;;1.52;;
25868;SDS011;13688;53.154;18.136;2024-03-23T16:02:49;4.33;;;1.60;;
25868;SDS011;13688;53.154;18.136;2024-03-23T16:08:11;5.40;;;1.75;;
25868;SDS011;13688;53.154;18.136;2024-03-23T16:13:34;4.17;;;1.67;;
25868;SDS011;13688;53.154;18.136;2024-03-23T16:18:57;4.87;;;1.98;;
25868;SDS011;13688;53.154;18.136;2024-03-23T16:24:20;6.62;;;2.33;;
25868;SDS011;13688;53.154;18.136;2024-03-23T16:29:43;4.92;;;2.27;;
25868;SDS011;13688;53.154;18.136;2024-03-23T16:35:06;6.92;;;2.67;;
25868;SDS011;13688;53.154;18.136;2024-03-23T16:40:30;6.37;;;2.62;;
25868;SDS011;13688;53.154;18.136;2024-03-23T16:45:53;7.50;;;2.00;;
25868;SDS011;13688;53.154;18.136;2024-03-23T16:51:21;5.35;;;2.40;;
25868;SDS011;13688;53.154;18.136;2024-03-23T16:56:44;4.53;;;2.25;;
25868;SDS011;13688;53.154;18.136;2024-03-23T17:02:07;4.92;;;2.30;;
25868;SDS011;13688;53.154;18.136;2024-03-23T17:07:29;5.17;;;1.90;;
25868;SDS011;13688;53.154;18.136;2024-03-23T17:12:54;5.85;;;2.25;;
25868;SDS011;13688;53.154;18.136;2024-03-23T17:18:16;7.62;;;2.95;;
25868;SDS011;13688;53.154;18.136;2024-03-23T17:23:39;4.15;;;2.05;;
25868;SDS011;13688;53.154;18.136;2024-03-23T17:29:02;7.17;;;2.60;;
25868;SDS011;13688;53.154;18.136;2024-03-23T17:34:25;6.65;;;2.27;;
25868;SDS011;13688;53.154;18.136;2024-03-23T17:39:48;7.45;;;2.20;;
25868;SDS011;13688;53.154;18.136;2024-03-23T17:45:11;6.47;;;3.00;;
25868;SDS011;13688;53.154;18.136;2024-03-23T17:50:34;9.50;;;2.98;;
25868;SDS011;13688;53.154;18.136;2024-03-23T17:55:56;7.60;;;2.95;;
25868;SDS011;13688;53.154;18.136;2024-03-23T18:01:21;13.32;;;5.22;;
25868;SDS011;13688;53.154;18.136;2024-03-23T18:06:43;14.68;;;5.72;;
25868;SDS011;13688;53.154;18.136;2024-03-23T18:12:06;15.23;;;6.15;;
25868;SDS011;13688;53.154;18.136;2024-03-23T18:17:28;10.75;;;3.47;;
25868;SDS011;13688;53.154;18.136;2024-03-23T18:22:53;10.38;;;3.47;;
25868;SDS011;13688;53.154;18.136;2024-03-23T18:28:17;7.42;;;4.10;;
25868;SDS011;13688;53.154;18.136;2024-03-23T18:33:40;10.93;;;3.62;;
25868;SDS011;13688;53.154;18.136;2024-03-23T18:39:04;11.15;;;4.30;;
25868;SDS011;13688;53.154;18.136;2024-03-23T18:44:26;14.63;;;5.78;;
25868;SDS011;13688;53.154;18.136;2024-03-23T18:49:48;14.03;;;6.53;;
25868;SDS011;13688;53.154;18.136;2024-03-23T18:55:12;11.63;;;6.08;;
25868;SDS011;13688;53.154;18.136;2024-03-23T19:00:35;13.25;;;6.33;;
25868;SDS011;13688;53.154;18.136;2024-03-23T19:05:59;11.83;;;5.92;;
25868;SDS011;13688;53.154;18.136;2024-03-23T19:11:23;16.30;;;6.35;;
25868;SDS011;13688;53.154;18.136;2024-03-23T19:16:45;16.95;;;7.95;;
25868;SDS011;13688;53.154;18.136;2024-03-23T19:22:08;17.50;;;7.87;;
25868;SDS011;13688;53.154;18.136;2024-03-23T19:27:30;19.05;;;8.25;;
25868;SDS011;13688;53.154;18.136;2024-03-23T19:32:54;22.48;;;8.70;;
25868;SDS011;13688;53.154;18.136;2024-03-23T19:38:16;17.07;;;8.03;;
25868;SDS011;13688;53.154;18.136;2024-03-23T19:43:39;21.30;;;7.45;;
25868;SDS011;13688;53.154;18.136;2024-03-23T19:49:02;14.47;;;6.17;;
25868;SDS011;13688;53.154;18.136;2024-03-23T19:54:27;12.65;;;5.35;;
25868;SDS011;13688;53.154;18.136;2024-03-23T19:59:50;16.73;;;5.67;;
25868;SDS011;13688;53.154;18.136;2024-03-23T20:05:12;13.48;;;4.85;;
25868;SDS011;13688;53.154;18.136;2024-03-23T20:10:35;10.45;;;4.72;;
25868;SDS011;13688;53.154;18.136;2024-03-23T20:16:04;11.28;;;4.00;;
25868;SDS011;13688;53.154;18.136;2024-03-23T20:21:27;10.68;;;4.30;;
25868;SDS011;13688;53.154;18.136;2024-03-23T20:26:49;10.18;;;5.10;;
25868;SDS011;13688;53.154;18.136;2024-03-23T20:32:12;16.20;;;5.08;;
25868;SDS011;13688;53.154;18.136;2024-03-23T20:37:34;15.00;;;5.50;;
25868;SDS011;13688;53.154;18.136;2024-03-23T20:42:57;15.08;;;5.55;;
25868;SDS011;13688;53.154;18.136;2024-03-23T20:48:25;11.22;;;5.58;;
25868;SDS011;13688;53.154;18.136;2024-03-23T20:53:50;13.95;;;5.75;;
25868;SDS011;13688;53.154;18.136;2024-03-23T20:59:14;9.45;;;5.33;;
25868;SDS011;13688;53.154;18.136;2024-03-23T21:04:36;14.98;;;5.83;;
25868;SDS011;13688;53.154;18.136;2024-03-23T21:09:59;14.10;;;7.08;;
25868;SDS011;13688;53.154;18.136;2024-03-23T21:15:22;14.83;;;6.20;;
25868;SDS011;13688;53.154;18.136;2024-03-23T21:20:52;11.95;;;5.95;;
25868;SDS011;13688;53.154;18.136;2024-03-23T21:26:15;15.10;;;6.75;;
25868;SDS011;13688;53.154;18.136;2024-03-23T21:31:37;15.60;;;6.78;;
25868;SDS011;13688;53.154;18.136;2024-03-23T21:37:00;13.72;;;6.15;;
25868;SDS011;13688;53.154;18.136;2024-03-23T21:42:22;12.88;;;6.28;;
25868;SDS011;13688;53.154;18.136;2024-03-23T21:47:46;14.63;;;6.55;;
25868;SDS011;13688;53.154;18.136;2024-03-23T21:53:09;12.13;;;5.97;;
25868;SDS011;13688;53.154;18.136;2024-03-23T21:58:31;13.30;;;6.30;;
25868;SDS011;13688;53.154;18.136;2024-03-23T22:03:54;12.05;;;5.62;;
25868;SDS011;13688;53.154;18.136;2024-03-23T22:09:16;14.33;;;6.80;;
25868;SDS011;13688;53.154;18.136;2024-03-23T22:14:38;12.50;;;6.25;;
25868;SDS011;13688;53.154;18.136;2024-03-23T22:20:01;14.83;;;6.05;;
25868;SDS011;13688;53.154;18.136;2024-03-23T22:25:24;16.27;;;6.47;;
25868;SDS011;13688;53.154;18.136;2024-03-23T22:36:18;12.15;;;5.83;;
25868;SDS011;13688;53.154;18.136;2024-03-23T22:41:40;14.63;;;6.20;;
25868;SDS011;13688;53.154;18.136;2024-03-23T22:47:02;11.75;;;5.67;;
25868;SDS011;13688;53.154;18.136;2024-03-23T22:52:25;12.65;;;6.45;;
25868;SDS011;13688;53.154;18.136;2024-03-23T22:57:47;14.03;;;5.87;;
25868;SDS011;13688;53.154;18.136;2024-03-23T23:03:10;11.15;;;5.80;;
25868;SDS011;13688;53.154;18.136;2024-03-23T23:08:35;15.23;;;5.60;;
25868;SDS011;13688;53.154;18.136;2024-03-23T23:13:58;15.80;;;6.70;;
25868;SDS011;13688;53.154;18.136;2024-03-23T23:19:21;14.60;;;6.33;;
25868;SDS011;13688;53.154;18.136;2024-03-23T23:24:43;12.07;;;6.33;;
25868;SDS011;13688;53.154;18.136;2024-03-23T23:30:06;14.35;;;6.22;;
25868;SDS011;13688;53.154;18.136;2024-03-23T23:35:28;13.50;;;5.90;;
25868;SDS011;13688;53.154;18.136;2024-03-23T23:40:51;12.40;;;6.12;;
25868;SDS011;13688;53.154;18.136;2024-03-23T23:46:14;14.78;;;7.12;;
25868;SDS011;13688;53.154;18.136;2024-03-23T23:51:37;14.68;;;6.40;;
25868;SDS011;13688;53.154;18.136;2024-03-23T23:57:00;13.65;;;6.35;;
